sensor_id;sensor_type;location;lat;lon;timestamp;P1;durP1;ratioP1;P2;durP2;ratioP2
65156;SDS011;52745;49.794;18.258;2022-10-31T00:01:18;25.73;;;13.55;;
65156;SDS011;52745;49.794;18.258;2022-10-31T00:03:48;21.30;;;12.40;;
65156;SDS011;52745;49.794;18.258;2022-10-31T00:06:15;21.17;;;12.60;;
65156;SDS011;52745;49.794;18.258;2022-10-31T00:08:51;18.77;;;12.07;;
65156;SDS011;52745;49.794;18.258;2022-10-31T00:11:19;22.67;;;12.20;;
65156;SDS011;52745;49.794;18.258;2022-10-31T00:13:46;21.20;;;12.15;;
65156;SDS011;52745;49.794;18.258;2022-10-31T00:16:13;19.80;;;11.65;;
65156;SDS011;52745;49.794;18.258;2022-10-31T00:18:43;20.73;;;11.45;;
65156;SDS011;52745;49.794;18.258;2022-10-31T00:21:14;19.55;;;11.82;;
65156;SDS011;52745;49.794;18.258;2022-10-31T00:23:40;19.83;;;12.00;;
65156;SDS011;52745;49.794;18.258;2022-10-31T00:26:07;23.48;;;11.07;;
65156;SDS011;52745;49.794;18.258;2022-10-31T00:28:33;19.42;;;11.70;;
65156;SDS011;52745;49.794;18.258;2022-10-31T00:31:04;17.63;;;10.90;;
65156;SDS011;52745;49.794;18.258;2022-10-31T00:33:36;19.90;;;11.02;;
65156;SDS011;52745;49.794;18.258;2022-10-31T00:36:03;21.25;;;11.80;;
65156;SDS011;52745;49.794;18.258;2022-10-31T00:38:33;19.50;;;11.40;;
65156;SDS011;52745;49.794;18.258;2022-10-31T00:40:59;18.88;;;11.82;;
65156;SDS011;52745;49.794;18.258;2022-10-31T00:43:26;19.58;;;11.70;;
65156;SDS011;52745;49.794;18.258;2022-10-31T00:45:52;19.23;;;10.73;;
65156;SDS011;52745;49.794;18.258;2022-10-31T00:48:19;20.52;;;11.15;;
65156;SDS011;52745;49.794;18.258;2022-10-31T00:50:48;19.90;;;11.18;;
65156;SDS011;52745;49.794;18.258;2022-10-31T00:53:15;20.83;;;12.23;;
65156;SDS011;52745;49.794;18.258;2022-10-31T00:55:41;18.70;;;10.80;;
65156;SDS011;52745;49.794;18.258;2022-10-31T00:58:08;20.30;;;11.60;;
65156;SDS011;52745;49.794;18.258;2022-10-31T01:00:34;20.30;;;12.02;;
65156;SDS011;52745;49.794;18.258;2022-10-31T01:03:01;21.52;;;11.63;;
65156;SDS011;52745;49.794;18.258;2022-10-31T01:05:28;19.33;;;10.93;;
65156;SDS011;52745;49.794;18.258;2022-10-31T01:07:54;20.58;;;11.68;;
65156;SDS011;52745;49.794;18.258;2022-10-31T01:10:21;19.10;;;11.20;;
65156;SDS011;52745;49.794;18.258;2022-10-31T01:12:48;19.52;;;11.13;;
65156;SDS011;52745;49.794;18.258;2022-10-31T01:15:16;25.83;;;11.38;;
65156;SDS011;52745;49.794;18.258;2022-10-31T01:17:45;20.02;;;11.20;;
65156;SDS011;52745;49.794;18.258;2022-10-31T01:20:12;19.92;;;11.35;;
65156;SDS011;52745;49.794;18.258;2022-10-31T01:22:40;18.30;;;10.82;;
65156;SDS011;52745;49.794;18.258;2022-10-31T01:25:07;21.08;;;11.13;;
65156;SDS011;52745;49.794;18.258;2022-10-31T01:27:35;19.85;;;10.68;;
65156;SDS011;52745;49.794;18.258;2022-10-31T01:30:01;23.90;;;11.98;;
65156;SDS011;52745;49.794;18.258;2022-10-31T01:32:28;21.08;;;11.80;;
65156;SDS011;52745;49.794;18.258;2022-10-31T01:34:55;19.40;;;11.23;;
65156;SDS011;52745;49.794;18.258;2022-10-31T01:37:21;19.33;;;11.45;;
65156;SDS011;52745;49.794;18.258;2022-10-31T01:39:48;22.65;;;11.35;;
65156;SDS011;52745;49.794;18.258;2022-10-31T01:42:16;20.67;;;11.15;;
65156;SDS011;52745;49.794;18.258;2022-10-31T01:47:26;21.83;;;11.18;;
65156;SDS011;52745;49.794;18.258;2022-10-31T01:49:59;25.05;;;11.65;;
65156;SDS011;52745;49.794;18.258;2022-10-31T01:52:38;19.20;;;10.85;;
65156;SDS011;52745;49.794;18.258;2022-10-31T01:55:18;24.90;;;11.40;;
65156;SDS011;52745;49.794;18.258;2022-10-31T01:57:46;22.55;;;11.48;;
65156;SDS011;52745;49.794;18.258;2022-10-31T02:00:17;23.80;;;10.23;;
65156;SDS011;52745;49.794;18.258;2022-10-31T02:02:46;22.70;;;11.60;;
65156;SDS011;52745;49.794;18.258;2022-10-31T02:05:17;21.10;;;10.73;;
65156;SDS011;52745;49.794;18.258;2022-10-31T02:07:52;21.80;;;11.77;;
65156;SDS011;52745;49.794;18.258;2022-10-31T02:10:32;27.10;;;10.80;;
65156;SDS011;52745;49.794;18.258;2022-10-31T02:13:03;20.00;;;11.45;;
65156;SDS011;52745;49.794;18.258;2022-10-31T02:15:32;27.05;;;12.07;;
65156;SDS011;52745;49.794;18.258;2022-10-31T02:17:59;23.50;;;11.15;;
65156;SDS011;52745;49.794;18.258;2022-10-31T02:20:28;22.30;;;11.65;;
65156;SDS011;52745;49.794;18.258;2022-10-31T02:31:47;29.17;;;10.77;;
65156;SDS011;52745;49.794;18.258;2022-10-31T02:34:28;25.27;;;11.68;;
65156;SDS011;52745;49.794;18.258;2022-10-31T02:37:12;27.50;;;11.38;;
65156;SDS011;52745;49.794;18.258;2022-10-31T02:43:21;27.52;;;12.15;;
65156;SDS011;52745;49.794;18.258;2022-10-31T02:46:14;33.63;;;11.75;;
65156;SDS011;52745;49.794;18.258;2022-10-31T02:48:44;42.50;;;11.27;;
65156;SDS011;52745;49.794;18.258;2022-10-31T02:51:13;27.65;;;11.20;;
65156;SDS011;52745;49.794;18.258;2022-10-31T02:53:42;24.23;;;11.82;;
65156;SDS011;52745;49.794;18.258;2022-10-31T02:56:14;22.02;;;11.52;;
65156;SDS011;52745;49.794;18.258;2022-10-31T03:01:56;22.10;;;11.90;;
65156;SDS011;52745;49.794;18.258;2022-10-31T03:06:57;20.42;;;9.93;;
65156;SDS011;52745;49.794;18.258;2022-10-31T03:09:40;21.92;;;10.70;;
65156;SDS011;52745;49.794;18.258;2022-10-31T03:20:40;17.27;;;10.10;;
65156;SDS011;52745;49.794;18.258;2022-10-31T03:23:14;20.80;;;9.80;;
65156;SDS011;52745;49.794;18.258;2022-10-31T03:25:49;17.17;;;9.20;;
65156;SDS011;52745;49.794;18.258;2022-10-31T03:28:18;19.40;;;10.27;;
65156;SDS011;52745;49.794;18.258;2022-10-31T03:30:50;26.23;;;10.18;;
65156;SDS011;52745;49.794;18.258;2022-10-31T03:33:21;16.55;;;9.57;;
65156;SDS011;52745;49.794;18.258;2022-10-31T03:35:55;19.58;;;9.63;;
65156;SDS011;52745;49.794;18.258;2022-10-31T03:38:26;19.60;;;9.60;;
65156;SDS011;52745;49.794;18.258;2022-10-31T03:40:54;16.85;;;9.70;;
65156;SDS011;52745;49.794;18.258;2022-10-31T03:43:29;16.83;;;9.00;;
65156;SDS011;52745;49.794;18.258;2022-10-31T03:45:58;15.48;;;8.82;;
65156;SDS011;52745;49.794;18.258;2022-10-31T03:48:25;15.95;;;9.18;;
65156;SDS011;52745;49.794;18.258;2022-10-31T03:53:41;16.42;;;9.20;;
65156;SDS011;52745;49.794;18.258;2022-10-31T03:56:19;17.38;;;9.15;;
65156;SDS011;52745;49.794;18.258;2022-10-31T04:01:44;16.75;;;9.48;;
65156;SDS011;52745;49.794;18.258;2022-10-31T04:04:15;18.60;;;9.80;;
65156;SDS011;52745;49.794;18.258;2022-10-31T04:06:43;17.88;;;9.73;;
65156;SDS011;52745;49.794;18.258;2022-10-31T04:09:13;17.88;;;9.85;;
65156;SDS011;52745;49.794;18.258;2022-10-31T04:11:43;17.98;;;10.10;;
65156;SDS011;52745;49.794;18.258;2022-10-31T04:14:41;17.33;;;9.20;;
65156;SDS011;52745;49.794;18.258;2022-10-31T04:17:12;17.35;;;9.70;;
65156;SDS011;52745;49.794;18.258;2022-10-31T04:19:42;18.17;;;9.85;;
65156;SDS011;52745;49.794;18.258;2022-10-31T04:22:09;17.35;;;10.35;;
65156;SDS011;52745;49.794;18.258;2022-10-31T04:24:37;20.58;;;10.13;;
65156;SDS011;52745;49.794;18.258;2022-10-31T04:27:06;20.85;;;9.45;;
65156;SDS011;52745;49.794;18.258;2022-10-31T04:29:33;17.52;;;9.52;;
65156;SDS011;52745;49.794;18.258;2022-10-31T04:31:59;20.00;;;9.98;;
65156;SDS011;52745;49.794;18.258;2022-10-31T04:34:27;17.75;;;9.18;;
65156;SDS011;52745;49.794;18.258;2022-10-31T04:36:53;20.48;;;10.00;;
65156;SDS011;52745;49.794;18.258;2022-10-31T04:39:21;23.35;;;10.43;;
65156;SDS011;52745;49.794;18.258;2022-10-31T04:41:58;29.13;;;8.98;;
65156;SDS011;52745;49.794;18.258;2022-10-31T04:44:25;17.45;;;9.75;;
65156;SDS011;52745;49.794;18.258;2022-10-31T04:46:53;24.95;;;9.32;;
65156;SDS011;52745;49.794;18.258;2022-10-31T04:49:19;21.35;;;10.18;;
65156;SDS011;52745;49.794;18.258;2022-10-31T04:51:46;18.00;;;10.05;;
65156;SDS011;52745;49.794;18.258;2022-10-31T04:54:13;17.00;;;9.50;;
65156;SDS011;52745;49.794;18.258;2022-10-31T04:57:08;19.23;;;8.88;;
65156;SDS011;52745;49.794;18.258;2022-10-31T04:59:35;19.90;;;8.95;;
65156;SDS011;52745;49.794;18.258;2022-10-31T05:02:03;20.60;;;8.48;;
65156;SDS011;52745;49.794;18.258;2022-10-31T05:04:45;22.65;;;8.52;;
65156;SDS011;52745;49.794;18.258;2022-10-31T05:07:11;23.42;;;8.90;;
65156;SDS011;52745;49.794;18.258;2022-10-31T05:09:38;33.58;;;9.43;;
65156;SDS011;52745;49.794;18.258;2022-10-31T05:12:04;18.98;;;9.00;;
65156;SDS011;52745;49.794;18.258;2022-10-31T05:14:54;17.52;;;9.23;;
65156;SDS011;52745;49.794;18.258;2022-10-31T05:17:39;34.50;;;9.43;;
65156;SDS011;52745;49.794;18.258;2022-10-31T05:20:44;16.52;;;9.40;;
65156;SDS011;52745;49.794;18.258;2022-10-31T05:23:34;20.20;;;9.93;;
65156;SDS011;52745;49.794;18.258;2022-10-31T05:26:01;25.10;;;9.07;;
65156;SDS011;52745;49.794;18.258;2022-10-31T05:28:28;15.50;;;9.32;;
65156;SDS011;52745;49.794;18.258;2022-10-31T05:30:54;23.38;;;9.30;;
65156;SDS011;52745;49.794;18.258;2022-10-31T05:33:21;36.25;;;9.30;;
65156;SDS011;52745;49.794;18.258;2022-10-31T05:36:22;19.98;;;8.57;;
65156;SDS011;52745;49.794;18.258;2022-10-31T05:39:00;48.45;;;8.63;;
65156;SDS011;52745;49.794;18.258;2022-10-31T05:41:34;23.40;;;8.68;;
65156;SDS011;52745;49.794;18.258;2022-10-31T05:44:09;24.60;;;8.05;;
65156;SDS011;52745;49.794;18.258;2022-10-31T05:46:48;24.20;;;8.50;;
65156;SDS011;52745;49.794;18.258;2022-10-31T05:49:41;20.38;;;7.78;;
65156;SDS011;52745;49.794;18.258;2022-10-31T05:52:43;28.30;;;7.18;;
65156;SDS011;52745;49.794;18.258;2022-10-31T05:55:26;29.25;;;8.57;;
65156;SDS011;52745;49.794;18.258;2022-10-31T05:58:14;26.17;;;7.43;;
65156;SDS011;52745;49.794;18.258;2022-10-31T06:00:47;19.80;;;7.10;;
65156;SDS011;52745;49.794;18.258;2022-10-31T06:03:15;23.98;;;7.15;;
65156;SDS011;52745;49.794;18.258;2022-10-31T06:05:50;24.00;;;7.75;;
65156;SDS011;52745;49.794;18.258;2022-10-31T06:08:16;31.40;;;8.13;;
65156;SDS011;52745;49.794;18.258;2022-10-31T06:10:44;43.28;;;7.15;;
65156;SDS011;52745;49.794;18.258;2022-10-31T06:13:11;33.53;;;7.10;;
65156;SDS011;52745;49.794;18.258;2022-10-31T06:15:44;36.30;;;6.82;;
65156;SDS011;52745;49.794;18.258;2022-10-31T06:18:12;18.33;;;6.72;;
65156;SDS011;52745;49.794;18.258;2022-10-31T06:20:46;22.65;;;6.72;;
65156;SDS011;52745;49.794;18.258;2022-10-31T06:23:13;12.13;;;6.85;;
65156;SDS011;52745;49.794;18.258;2022-10-31T06:25:42;21.50;;;8.93;;
65156;SDS011;52745;49.794;18.258;2022-10-31T06:28:13;35.08;;;7.82;;
65156;SDS011;52745;49.794;18.258;2022-10-31T06:31:09;22.08;;;6.63;;
65156;SDS011;52745;49.794;18.258;2022-10-31T06:33:36;23.48;;;6.80;;
65156;SDS011;52745;49.794;18.258;2022-10-31T06:36:02;20.95;;;6.57;;
65156;SDS011;52745;49.794;18.258;2022-10-31T06:38:31;34.58;;;7.72;;
65156;SDS011;52745;49.794;18.258;2022-10-31T06:41:01;20.58;;;7.50;;
65156;SDS011;52745;49.794;18.258;2022-10-31T06:43:36;19.15;;;7.45;;
65156;SDS011;52745;49.794;18.258;2022-10-31T06:46:18;30.40;;;7.65;;
65156;SDS011;52745;49.794;18.258;2022-10-31T06:49:08;18.55;;;7.00;;
65156;SDS011;52745;49.794;18.258;2022-10-31T06:51:42;14.52;;;6.85;;
65156;SDS011;52745;49.794;18.258;2022-10-31T06:54:08;16.00;;;7.15;;
65156;SDS011;52745;49.794;18.258;2022-10-31T06:56:36;12.80;;;6.60;;
65156;SDS011;52745;49.794;18.258;2022-10-31T06:59:03;18.55;;;7.20;;
65156;SDS011;52745;49.794;18.258;2022-10-31T07:01:57;15.75;;;6.32;;
65156;SDS011;52745;49.794;18.258;2022-10-31T07:04:24;12.85;;;6.57;;
65156;SDS011;52745;49.794;18.258;2022-10-31T07:06:51;13.65;;;6.65;;
65156;SDS011;52745;49.794;18.258;2022-10-31T07:09:19;13.88;;;6.50;;
65156;SDS011;52745;49.794;18.258;2022-10-31T07:11:47;10.55;;;6.53;;
65156;SDS011;52745;49.794;18.258;2022-10-31T07:14:14;18.45;;;5.75;;
65156;SDS011;52745;49.794;18.258;2022-10-31T07:16:41;10.65;;;6.03;;
65156;SDS011;52745;49.794;18.258;2022-10-31T07:19:08;25.27;;;10.85;;
65156;SDS011;52745;49.794;18.258;2022-10-31T07:21:34;21.00;;;6.50;;
65156;SDS011;52745;49.794;18.258;2022-10-31T07:24:01;13.40;;;6.60;;
65156;SDS011;52745;49.794;18.258;2022-10-31T07:26:43;10.95;;;6.15;;
65156;SDS011;52745;49.794;18.258;2022-10-31T07:29:13;11.75;;;5.93;;
65156;SDS011;52745;49.794;18.258;2022-10-31T07:31:39;13.35;;;5.82;;
65156;SDS011;52745;49.794;18.258;2022-10-31T07:34:14;14.18;;;6.20;;
65156;SDS011;52745;49.794;18.258;2022-10-31T07:37:03;12.57;;;5.93;;
65156;SDS011;52745;49.794;18.258;2022-10-31T07:39:30;8.95;;;5.55;;
65156;SDS011;52745;49.794;18.258;2022-10-31T07:41:57;10.90;;;5.75;;
65156;SDS011;52745;49.794;18.258;2022-10-31T07:44:25;9.15;;;5.60;;
65156;SDS011;52745;49.794;18.258;2022-10-31T07:47:00;10.70;;;5.28;;
65156;SDS011;52745;49.794;18.258;2022-10-31T07:49:45;9.82;;;5.60;;
65156;SDS011;52745;49.794;18.258;2022-10-31T07:52:30;9.82;;;5.70;;
65156;SDS011;52745;49.794;18.258;2022-10-31T07:55:15;8.65;;;5.10;;
65156;SDS011;52745;49.794;18.258;2022-10-31T07:57:46;10.50;;;5.50;;
65156;SDS011;52745;49.794;18.258;2022-10-31T08:00:21;8.88;;;5.90;;
65156;SDS011;52745;49.794;18.258;2022-10-31T08:02:56;10.45;;;5.85;;
65156;SDS011;52745;49.794;18.258;2022-10-31T08:05:51;8.13;;;5.45;;
65156;SDS011;52745;49.794;18.258;2022-10-31T08:08:36;9.93;;;5.70;;
65156;SDS011;52745;49.794;18.258;2022-10-31T08:11:03;9.05;;;5.78;;
65156;SDS011;52745;49.794;18.258;2022-10-31T08:13:30;11.88;;;5.65;;
65156;SDS011;52745;49.794;18.258;2022-10-31T08:15:58;9.25;;;5.40;;
65156;SDS011;52745;49.794;18.258;2022-10-31T08:18:29;7.95;;;5.18;;
65156;SDS011;52745;49.794;18.258;2022-10-31T08:20:57;8.73;;;5.20;;
65156;SDS011;52745;49.794;18.258;2022-10-31T08:23:26;7.03;;;5.20;;
65156;SDS011;52745;49.794;18.258;2022-10-31T08:25:54;8.60;;;5.25;;
65156;SDS011;52745;49.794;18.258;2022-10-31T08:28:23;9.18;;;5.78;;
65156;SDS011;52745;49.794;18.258;2022-10-31T08:30:51;8.15;;;5.30;;
65156;SDS011;52745;49.794;18.258;2022-10-31T08:33:36;8.95;;;5.18;;
65156;SDS011;52745;49.794;18.258;2022-10-31T08:36:21;9.00;;;5.70;;
65156;SDS011;52745;49.794;18.258;2022-10-31T08:38:53;10.57;;;5.47;;
65156;SDS011;52745;49.794;18.258;2022-10-31T08:41:19;9.43;;;5.28;;
65156;SDS011;52745;49.794;18.258;2022-10-31T08:43:46;8.90;;;5.13;;
65156;SDS011;52745;49.794;18.258;2022-10-31T08:46:15;7.10;;;4.75;;
65156;SDS011;52745;49.794;18.258;2022-10-31T08:48:43;7.35;;;4.88;;
65156;SDS011;52745;49.794;18.258;2022-10-31T08:51:10;9.13;;;5.00;;
65156;SDS011;52745;49.794;18.258;2022-10-31T08:53:37;7.47;;;4.70;;
65156;SDS011;52745;49.794;18.258;2022-10-31T08:56:22;7.20;;;4.50;;
65156;SDS011;52745;49.794;18.258;2022-10-31T08:58:49;7.75;;;5.03;;
65156;SDS011;52745;49.794;18.258;2022-10-31T09:01:20;7.22;;;4.97;;
65156;SDS011;52745;49.794;18.258;2022-10-31T09:03:46;7.90;;;4.72;;
65156;SDS011;52745;49.794;18.258;2022-10-31T09:06:13;5.97;;;4.45;;
65156;SDS011;52745;49.794;18.258;2022-10-31T09:08:40;6.72;;;4.72;;
65156;SDS011;52745;49.794;18.258;2022-10-31T09:11:06;7.03;;;4.30;;
65156;SDS011;52745;49.794;18.258;2022-10-31T09:13:52;6.68;;;4.38;;
65156;SDS011;52745;49.794;18.258;2022-10-31T09:16:37;9.77;;;4.18;;
65156;SDS011;52745;49.794;18.258;2022-10-31T09:19:05;5.53;;;3.90;;
65156;SDS011;52745;49.794;18.258;2022-10-31T09:21:32;7.60;;;4.20;;
65156;SDS011;52745;49.794;18.258;2022-10-31T09:23:58;7.35;;;4.38;;
65156;SDS011;52745;49.794;18.258;2022-10-31T09:26:25;7.60;;;4.00;;
65156;SDS011;52745;49.794;18.258;2022-10-31T09:29:24;6.10;;;4.10;;
65156;SDS011;52745;49.794;18.258;2022-10-31T09:31:56;5.32;;;4.10;;
65156;SDS011;52745;49.794;18.258;2022-10-31T09:34:28;9.05;;;4.00;;
65156;SDS011;52745;49.794;18.258;2022-10-31T09:37:06;6.32;;;4.30;;
65156;SDS011;52745;49.794;18.258;2022-10-31T09:39:34;6.95;;;4.05;;
65156;SDS011;52745;49.794;18.258;2022-10-31T09:51:05;5.78;;;4.10;;
65156;SDS011;52745;49.794;18.258;2022-10-31T09:53:43;4.88;;;3.42;;
65156;SDS011;52745;49.794;18.258;2022-10-31T09:56:17;6.70;;;3.50;;
65156;SDS011;52745;49.794;18.258;2022-10-31T09:58:47;5.35;;;3.30;;
65156;SDS011;52745;49.794;18.258;2022-10-31T10:01:39;5.97;;;3.60;;
65156;SDS011;52745;49.794;18.258;2022-10-31T10:07:03;6.03;;;3.50;;
65156;SDS011;52745;49.794;18.258;2022-10-31T10:09:43;6.22;;;3.25;;
65156;SDS011;52745;49.794;18.258;2022-10-31T10:15:29;5.60;;;3.00;;
65156;SDS011;52745;49.794;18.258;2022-10-31T10:26:25;6.82;;;3.13;;
65156;SDS011;52745;49.794;18.258;2022-10-31T10:29:01;7.40;;;3.15;;
65156;SDS011;52745;49.794;18.258;2022-10-31T10:31:39;7.82;;;3.38;;
65156;SDS011;52745;49.794;18.258;2022-10-31T10:36:52;8.93;;;3.40;;
65156;SDS011;52745;49.794;18.258;2022-10-31T10:39:29;6.35;;;3.22;;
65156;SDS011;52745;49.794;18.258;2022-10-31T10:42:09;11.63;;;3.65;;
65156;SDS011;52745;49.794;18.258;2022-10-31T10:44:59;8.30;;;3.33;;
65156;SDS011;52745;49.794;18.258;2022-10-31T10:47:52;4.65;;;2.90;;
65156;SDS011;52745;49.794;18.258;2022-10-31T10:50:27;6.45;;;3.20;;
65156;SDS011;52745;49.794;18.258;2022-10-31T10:55:51;9.63;;;3.70;;
65156;SDS011;52745;49.794;18.258;2022-10-31T10:58:23;6.32;;;3.45;;
65156;SDS011;52745;49.794;18.258;2022-10-31T11:00:54;5.10;;;3.50;;
65156;SDS011;52745;49.794;18.258;2022-10-31T11:03:21;10.07;;;3.40;;
65156;SDS011;52745;49.794;18.258;2022-10-31T11:05:50;6.40;;;3.60;;
65156;SDS011;52745;49.794;18.258;2022-10-31T11:08:25;5.40;;;3.08;;
65156;SDS011;52745;49.794;18.258;2022-10-31T11:11:12;9.20;;;5.68;;
65156;SDS011;52745;49.794;18.258;2022-10-31T11:14:11;4.38;;;3.10;;
65156;SDS011;52745;49.794;18.258;2022-10-31T11:16:40;7.00;;;3.00;;
65156;SDS011;52745;49.794;18.258;2022-10-31T11:21:48;7.38;;;3.45;;
65156;SDS011;52745;49.794;18.258;2022-10-31T11:24:17;6.82;;;3.13;;
65156;SDS011;52745;49.794;18.258;2022-10-31T11:26:48;6.55;;;3.50;;
65156;SDS011;52745;49.794;18.258;2022-10-31T11:29:24;4.13;;;3.10;;
65156;SDS011;52745;49.794;18.258;2022-10-31T11:31:53;5.22;;;3.15;;
65156;SDS011;52745;49.794;18.258;2022-10-31T11:34:37;5.43;;;3.17;;
65156;SDS011;52745;49.794;18.258;2022-10-31T11:37:16;5.80;;;3.60;;
65156;SDS011;52745;49.794;18.258;2022-10-31T11:39:52;6.55;;;3.58;;
65156;SDS011;52745;49.794;18.258;2022-10-31T11:42:21;8.85;;;3.85;;
65156;SDS011;52745;49.794;18.258;2022-10-31T11:44:53;10.40;;;3.53;;
65156;SDS011;52745;49.794;18.258;2022-10-31T11:47:30;5.45;;;3.40;;
65156;SDS011;52745;49.794;18.258;2022-10-31T11:50:00;5.20;;;3.50;;
65156;SDS011;52745;49.794;18.258;2022-10-31T11:52:30;11.50;;;3.60;;
65156;SDS011;52745;49.794;18.258;2022-10-31T11:57:42;10.43;;;3.83;;
65156;SDS011;52745;49.794;18.258;2022-10-31T12:00:20;6.65;;;3.40;;
65156;SDS011;52745;49.794;18.258;2022-10-31T12:02:51;8.18;;;4.13;;
65156;SDS011;52745;49.794;18.258;2022-10-31T12:05:31;8.95;;;4.60;;
65156;SDS011;52745;49.794;18.258;2022-10-31T12:07:59;9.10;;;4.68;;
65156;SDS011;52745;49.794;18.258;2022-10-31T12:10:28;6.57;;;3.60;;
65156;SDS011;52745;49.794;18.258;2022-10-31T12:16:04;22.98;;;16.33;;
65156;SDS011;52745;49.794;18.258;2022-10-31T12:24:34;7.20;;;3.70;;
65156;SDS011;52745;49.794;18.258;2022-10-31T12:38:15;6.63;;;3.70;;
65156;SDS011;52745;49.794;18.258;2022-10-31T12:41:02;8.18;;;3.60;;
65156;SDS011;52745;49.794;18.258;2022-10-31T12:54:30;8.68;;;3.60;;
65156;SDS011;52745;49.794;18.258;2022-10-31T12:59:56;10.00;;;3.47;;
65156;SDS011;52745;49.794;18.258;2022-10-31T13:02:32;5.75;;;3.60;;
65156;SDS011;52745;49.794;18.258;2022-10-31T13:05:05;8.43;;;3.40;;
65156;SDS011;52745;49.794;18.258;2022-10-31T13:07:42;8.75;;;3.25;;
65156;SDS011;52745;49.794;18.258;2022-10-31T13:12:55;6.85;;;3.42;;
65156;SDS011;52745;49.794;18.258;2022-10-31T13:15:27;11.40;;;3.55;;
65156;SDS011;52745;49.794;18.258;2022-10-31T13:17:59;8.52;;;4.70;;
65156;SDS011;52745;49.794;18.258;2022-10-31T13:20:34;9.00;;;5.03;;
65156;SDS011;52745;49.794;18.258;2022-10-31T13:25:42;10.30;;;3.90;;
65156;SDS011;52745;49.794;18.258;2022-10-31T13:31:02;5.85;;;3.55;;
65156;SDS011;52745;49.794;18.258;2022-10-31T13:33:30;7.30;;;4.18;;
65156;SDS011;52745;49.794;18.258;2022-10-31T13:41:22;5.65;;;3.25;;
65156;SDS011;52745;49.794;18.258;2022-10-31T13:46:25;7.38;;;3.92;;
65156;SDS011;52745;49.794;18.258;2022-10-31T13:49:02;7.50;;;4.20;;
65156;SDS011;52745;49.794;18.258;2022-10-31T13:51:30;8.45;;;3.88;;
65156;SDS011;52745;49.794;18.258;2022-10-31T13:54:06;9.88;;;4.35;;
65156;SDS011;52745;49.794;18.258;2022-10-31T13:56:50;9.50;;;4.20;;
65156;SDS011;52745;49.794;18.258;2022-10-31T13:59:19;7.35;;;4.13;;
65156;SDS011;52745;49.794;18.258;2022-10-31T14:04:25;17.80;;;9.80;;
65156;SDS011;52745;49.794;18.258;2022-10-31T14:09:38;16.25;;;10.13;;
65156;SDS011;52745;49.794;18.258;2022-10-31T14:12:27;9.73;;;6.05;;
65156;SDS011;52745;49.794;18.258;2022-10-31T14:15:13;11.50;;;5.72;;
65156;SDS011;52745;49.794;18.258;2022-10-31T14:22:51;12.95;;;6.90;;
65156;SDS011;52745;49.794;18.258;2022-10-31T14:27:56;17.63;;;7.70;;
65156;SDS011;52745;49.794;18.258;2022-10-31T14:30:24;16.92;;;8.68;;
65156;SDS011;52745;49.794;18.258;2022-10-31T14:32:57;17.38;;;8.63;;
65156;SDS011;52745;49.794;18.258;2022-10-31T14:35:52;19.98;;;9.00;;
65156;SDS011;52745;49.794;18.258;2022-10-31T14:41:09;15.55;;;9.77;;
65156;SDS011;52745;49.794;18.258;2022-10-31T14:43:58;26.30;;;12.63;;
65156;SDS011;52745;49.794;18.258;2022-10-31T14:46:42;21.10;;;10.68;;
65156;SDS011;52745;49.794;18.258;2022-10-31T14:52:19;21.95;;;10.45;;
65156;SDS011;52745;49.794;18.258;2022-10-31T14:54:49;19.98;;;10.25;;
65156;SDS011;52745;49.794;18.258;2022-10-31T14:57:32;19.73;;;10.20;;
65156;SDS011;52745;49.794;18.258;2022-10-31T15:00:05;19.02;;;10.40;;
65156;SDS011;52745;49.794;18.258;2022-10-31T15:02:39;21.23;;;10.48;;
65156;SDS011;52745;49.794;18.258;2022-10-31T15:05:15;20.15;;;10.13;;
65156;SDS011;52745;49.794;18.258;2022-10-31T15:07:52;22.08;;;11.32;;
65156;SDS011;52745;49.794;18.258;2022-10-31T15:10:24;22.98;;;12.27;;
65156;SDS011;52745;49.794;18.258;2022-10-31T15:12:53;28.92;;;14.85;;
65156;SDS011;52745;49.794;18.258;2022-10-31T15:15:24;24.88;;;12.07;;
65156;SDS011;52745;49.794;18.258;2022-10-31T15:17:53;20.35;;;10.73;;
65156;SDS011;52745;49.794;18.258;2022-10-31T15:20:22;19.63;;;10.52;;
65156;SDS011;52745;49.794;18.258;2022-10-31T15:22:53;21.65;;;10.13;;
65156;SDS011;52745;49.794;18.258;2022-10-31T15:25:22;16.73;;;10.35;;
65156;SDS011;52745;49.794;18.258;2022-10-31T15:27:52;22.45;;;10.82;;
65156;SDS011;52745;49.794;18.258;2022-10-31T15:30:23;20.33;;;11.23;;
65156;SDS011;52745;49.794;18.258;2022-10-31T15:32:51;22.95;;;11.07;;
65156;SDS011;52745;49.794;18.258;2022-10-31T15:35:28;22.50;;;10.77;;
65156;SDS011;52745;49.794;18.258;2022-10-31T15:37:57;21.10;;;12.20;;
65156;SDS011;52745;49.794;18.258;2022-10-31T15:40:25;24.58;;;12.98;;
65156;SDS011;52745;49.794;18.258;2022-10-31T15:42:54;22.73;;;11.60;;
65156;SDS011;52745;49.794;18.258;2022-10-31T15:45:27;22.05;;;11.48;;
65156;SDS011;52745;49.794;18.258;2022-10-31T15:52:54;22.15;;;11.68;;
65156;SDS011;52745;49.794;18.258;2022-10-31T15:55:24;25.45;;;12.48;;
65156;SDS011;52745;49.794;18.258;2022-10-31T15:58:04;23.58;;;12.50;;
65156;SDS011;52745;49.794;18.258;2022-10-31T16:00:38;21.83;;;11.55;;
65156;SDS011;52745;49.794;18.258;2022-10-31T16:03:09;21.20;;;11.57;;
65156;SDS011;52745;49.794;18.258;2022-10-31T16:05:53;23.80;;;11.90;;
65156;SDS011;52745;49.794;18.258;2022-10-31T16:13:34;28.48;;;13.40;;
65156;SDS011;52745;49.794;18.258;2022-10-31T16:16:04;21.85;;;12.07;;
65156;SDS011;52745;49.794;18.258;2022-10-31T16:18:38;25.70;;;12.63;;
65156;SDS011;52745;49.794;18.258;2022-10-31T16:21:07;26.45;;;12.68;;
65156;SDS011;52745;49.794;18.258;2022-10-31T16:23:38;38.90;;;21.20;;
65156;SDS011;52745;49.794;18.258;2022-10-31T16:26:12;32.15;;;15.00;;
65156;SDS011;52745;49.794;18.258;2022-10-31T16:28:50;26.90;;;14.90;;
65156;SDS011;52745;49.794;18.258;2022-10-31T16:31:24;29.25;;;15.00;;
65156;SDS011;52745;49.794;18.258;2022-10-31T16:34:03;41.50;;;14.20;;
65156;SDS011;52745;49.794;18.258;2022-10-31T16:36:32;37.70;;;14.85;;
65156;SDS011;52745;49.794;18.258;2022-10-31T16:39:04;59.53;;;14.35;;
65156;SDS011;52745;49.794;18.258;2022-10-31T16:41:32;41.15;;;14.93;;
65156;SDS011;52745;49.794;18.258;2022-10-31T16:44:04;75.10;;;15.52;;
65156;SDS011;52745;49.794;18.258;2022-10-31T16:46:40;100.40;;;16.08;;
65156;SDS011;52745;49.794;18.258;2022-10-31T16:49:08;57.38;;;16.58;;
65156;SDS011;52745;49.794;18.258;2022-10-31T16:51:35;41.97;;;15.25;;
65156;SDS011;52745;49.794;18.258;2022-10-31T16:54:02;52.60;;;15.88;;
65156;SDS011;52745;49.794;18.258;2022-10-31T16:56:32;77.75;;;15.68;;
65156;SDS011;52745;49.794;18.258;2022-10-31T16:59:02;66.55;;;15.95;;
65156;SDS011;52745;49.794;18.258;2022-10-31T17:01:32;69.75;;;13.82;;
65156;SDS011;52745;49.794;18.258;2022-10-31T17:04:00;50.15;;;14.10;;
65156;SDS011;52745;49.794;18.258;2022-10-31T17:06:26;67.10;;;15.32;;
65156;SDS011;52745;49.794;18.258;2022-10-31T17:08:53;71.55;;;13.68;;
65156;SDS011;52745;49.794;18.258;2022-10-31T17:11:21;98.65;;;14.68;;
65156;SDS011;52745;49.794;18.258;2022-10-31T17:13:50;111.20;;;14.55;;
65156;SDS011;52745;49.794;18.258;2022-10-31T17:16:17;51.05;;;14.80;;
65156;SDS011;52745;49.794;18.258;2022-10-31T17:18:43;96.65;;;14.13;;
65156;SDS011;52745;49.794;18.258;2022-10-31T17:21:22;48.22;;;14.38;;